Time;durP1;ratioP1;P1;durP2;ratioP2;P2;SDS_P1;SDS_P2;PMS_P1;PMS_P2;Temp;Humidity;BMP_temperature;BMP_pressure;BME280_temperature;BME280_humidity;BME280_pressure;Samples;Min_cycle;Max_cycle;Signal;HPM_P1;HPM_P2
2021/05/15 10:41:30;;;;;;;;;;;;;;;;;;5071914;27;19928;-45
2021/05/15 14:51:05;;;;;;;4.75;0.80;;;;;;;;;;5055930;28;20363;-50
2021/05/15 14:53:32;;;;;;;;;;;;;;;;;;5048812;28;20039;-39
2021/05/15 14:55:58;;;;;;;1.00;0.60;;;;;;;;;;5047018;28;19909;-41
2021/05/15 14:58:24;;;;;;;1.63;0.60;;;;;;;;;;5047852;28;20108;-42
2021/05/15 15:00:50;;;;;;;4.20;0.70;;;;;;;;;;5050015;28;20104;-41
2021/05/15 15:03:16;;;;;;;2.50;0.90;;;;;;;;;;5043733;28;20486;-43
2021/05/15 15:05:42;;;;;;;1.95;0.90;;;;;;;;;;5043942;28;20053;-44
2021/05/15 15:08:08;;;;;;;1.13;0.60;;;;;;;;;;5048021;28;20033;-42
2021/05/15 15:10:34;;;;;;;1.88;0.70;;;;;;;;;;5050233;28;20033;-40
2021/05/15 15:13:00;;;;;;;2.72;0.70;;;;;;;;;;5048446;28;20032;-39
2021/05/15 15:15:26;;;;;;;1.80;0.85;;;;;;;;;;5050565;28;20029;-46
2021/05/15 15:17:52;;;;;;;1.52;0.77;;;;;;;;;;5049355;28;20108;-40
2021/05/15 15:20:18;;;;;;;1.08;0.80;;;;;;;;;;5050154;28;20061;-39
2021/05/15 15:22:45;;;;;;;3.35;0.70;;;;;;;;;;5044669;28;20147;-46
2021/05/15 15:25:11;;;;;;;1.60;0.60;;;;;;;;;;5048436;28;20048;-41
2021/05/15 15:27:37;;;;;;;4.13;0.63;;;;;;;;;;5046241;28;20030;-45
2021/05/15 15:30:06;;;;;;;0.77;0.60;;;;;;;;;;5046954;28;20102;-43
2021/05/15 15:32:32;;;;;;;2.22;0.75;;;;;;;;;;5051896;28;20029;-45
2021/05/15 15:34:58;;;;;;;1.15;0.60;;;;;;;;;;5049001;28;20107;-40
2021/05/15 15:37:24;;;;;;;2.22;0.80;;;;;;;;;;5047951;28;20029;-55
2021/05/15 15:39:50;;;;;;;1.20;0.70;;;;;;;;;;5048668;28;20033;-45
2021/05/15 15:42:16;;;;;;;1.40;0.75;;;;;;;;;;5050061;28;20029;-38
2021/05/15 15:44:43;;;;;;;5.75;0.90;;;;;;;;;;5045477;28;20358;-39
2021/05/15 15:47:10;;;;;;;1.58;0.70;;;;;;;;;;5047129;28;20025;-41
2021/05/15 15:49:36;;;;;;;2.92;0.70;;;;;;;;;;5048502;28;20050;-43
2021/05/15 15:52:02;;;;;;;2.58;0.85;;;;;;;;;;5049691;28;20025;-42
2021/05/15 15:54:28;;;;;;;1.45;0.68;;;;;;;;;;5049009;28;20021;-47
2021/05/15 15:56:54;;;;;;;2.00;1.00;;;;;;;;;;5049588;28;20060;-40
2021/05/15 15:59:20;;;;;;;1.10;0.60;;;;;;;;;;5049697;28;20028;-55
2021/05/15 16:01:48;;;;;;;1.83;0.70;;;;;;;;;;5037538;28;20025;-47
2021/05/15 16:04:14;;;;;;;1.08;0.80;;;;;;;;;;5035002;28;20518;-43
2021/05/15 16:06:40;;;;;;;1.08;0.60;;;;;;;;;;5034751;28;20032;-43
2021/05/15 16:09:06;;;;;;;0.82;0.80;;;;;;;;;;5066650;28;20036;-48
2021/05/15 16:11:32;;;;;;;2.53;0.88;;;;;;;;;;5034348;28;20357;-47
2021/05/15 16:14:00;;;;;;;1.33;0.73;;;;;;;;;;5034611;28;20330;-41
2021/05/15 16:16:26;;;;;;;2.85;0.70;;;;;;;;;;5034191;28;20021;-42
2021/05/15 16:18:52;;;;;;;1.83;0.57;;;;;;;;;;5031964;28;20358;-40
2021/05/15 16:21:18;;;;;;;0.98;0.60;;;;;;;;;;5032232;28;20135;-43
2021/05/15 16:23:44;;;;;;;2.83;0.73;;;;;;;;;;5034761;28;20097;-42
2021/05/15 16:26:10;;;;;;;2.35;0.73;;;;;;;;;;5033265;28;20115;-40
2021/05/15 16:28:36;;;;;;;1.48;1.00;;;;;;;;;;5035184;28;20072;-40
2021/05/15 16:31:02;;;;;;;2.35;0.75;;;;;;;;;;5030244;28;20441;-38
2021/05/15 16:33:28;;;;;;;1.75;0.70;;;;;;;;;;5035097;28;20357;-39
2021/05/15 16:35:56;;;;;;;0.98;0.60;;;;;;;;;;5034593;28;20025;-40
2021/05/15 16:38:22;;;;;;;1.60;0.80;;;;;;;;;;5031721;28;20112;-42
2021/05/15 16:40:49;;;;;;;1.27;0.60;;;;;;;;;;5032261;28;20060;-41
2021/05/15 16:43:15;;;;;;;2.83;0.60;;;;;;;;;;5035165;28;20021;-43
2021/05/15 16:45:41;;;;;;;2.00;0.70;;;;;;;;;;5032303;28;20043;-45
2021/05/15 16:48:07;;;;;;;1.58;0.80;;;;;;;;;;5030061;28;20381;-40
2021/05/15 16:50:36;;;;;;;2.33;0.80;;;;;;;;;;5032539;28;20045;-39
2021/05/15 16:53:02;;;;;;;1.02;0.70;;;;;;;;;;5034724;28;20045;-39
2021/05/15 16:55:28;;;;;;;2.10;0.70;;;;;;;;;;5065807;28;20676;-39
2021/05/15 16:57:54;;;;;;;1.67;0.60;;;;;;;;;;5035190;28;20022;-39
2021/05/15 17:00:21;;;;;;;2.58;0.82;;;;;;;;;;5032340;28;20037;-38
2021/05/15 17:02:47;;;;;;;2.95;0.70;;;;;;;;;;5035063;28;20021;-39
2021/05/15 17:05:13;;;;;;;3.53;0.90;;;;;;;;;;5026497;28;20135;-39
2021/05/15 17:07:40;;;;;;;1.90;0.80;;;;;;;;;;5033017;28;20029;-39
2021/05/15 17:10:06;;;;;;;2.05;0.80;;;;;;;;;;5030757;28;20036;-39
2021/05/15 17:12:32;;;;;;;3.42;1.00;;;;;;;;;;5030648;28;20028;-40
2021/05/15 17:14:58;;;;;;;3.13;0.93;;;;;;;;;;5030548;28;20026;-40
2021/05/15 17:17:24;;;;;;;3.53;0.80;;;;;;;;;;5032406;28;20021;-49
2021/05/15 17:19:50;;;;;;;3.38;0.85;;;;;;;;;;5030853;28;20095;-39
2021/05/15 17:22:16;;;;;;;1.90;0.73;;;;;;;;;;5027413;28;20029;-40
2021/05/15 17:24:42;;;;;;;2.90;0.90;;;;;;;;;;5030335;28;20101;-39
2021/05/15 17:27:08;;;;;;;4.75;0.90;;;;;;;;;;5024543;28;20056;-40
2021/05/15 17:29:34;;;;;;;5.82;1.05;;;;;;;;;;5030805;28;20069;-40
2021/05/15 17:32:01;;;;;;;4.50;0.52;;;;;;;;;;5031511;28;20026;-38
2021/05/15 17:34:29;;;;;;;5.38;0.98;;;;;;;;;;5032439;28;20140;-40
2021/05/15 17:36:55;;;;;;;2.35;0.88;;;;;;;;;;5030356;28;20033;-41
2021/05/15 17:39:21;;;;;;;3.85;0.80;;;;;;;;;;5032759;28;20037;-39
2021/05/15 17:41:47;;;;;;;2.03;0.70;;;;;;;;;;5028515;28;20025;-40
2021/05/15 17:44:13;;;;;;;2.33;0.77;;;;;;;;;;5059939;28;20354;-39
2021/05/15 17:46:41;;;;;;;5.38;1.13;;;;;;;;;;5028062;28;20127;-38
2021/05/15 17:49:08;;;;;;;8.82;0.90;;;;;;;;;;5030184;28;20083;-38
2021/05/15 17:51:35;;;;;;;6.68;1.20;;;;;;;;;;5029326;28;20099;-37
2021/05/15 17:54:01;;;;;;;4.78;0.90;;;;;;;;;;5028944;28;20372;-39
2021/05/15 17:56:27;;;;;;;3.03;0.80;;;;;;;;;;5033160;28;20036;-41
2021/05/15 17:58:54;;;;;;;3.42;0.82;;;;;;;;;;5030861;28;20049;-41
2021/05/15 18:01:20;;;;;;;5.78;1.10;;;;;;;;;;5030276;28;20059;-43
2021/05/15 18:03:46;;;;;;;7.22;1.02;;;;;;;;;;5030560;28;20033;-41
2021/05/15 18:06:12;;;;;;;10.77;1.15;;;;;;;;;;5026064;28;20095;-41
2021/05/15 18:08:40;;;;;;;2.83;0.95;;;;;;;;;;5029736;28;20021;-41
2021/05/15 18:11:06;;;;;;;3.70;1.08;;;;;;;;;;5028164;28;20045;-39
2021/05/15 18:13:32;;;;;;;10.90;1.30;;;;;;;;;;5031808;28;20072;-40
2021/05/15 18:16:00;;;;;;;7.32;1.10;;;;;;;;;;5028225;28;20343;-40
2021/05/15 18:18:26;;;;;;;6.72;1.10;;;;;;;;;;5031383;28;20075;-40
2021/05/15 18:20:54;;;;;;;4.93;1.00;;;;;;;;;;5027995;28;20040;-40
2021/05/15 18:23:20;;;;;;;10.20;2.10;;;;;;;;;;5028530;28;20346;-40
2021/05/15 18:25:46;;;;;;;7.50;1.35;;;;;;;;;;5025337;28;20049;-41
2021/05/15 18:28:12;;;;;;;3.60;1.17;;;;;;;;;;5029763;28;20048;-41
2021/05/15 18:30:38;;;;;;;5.30;1.27;;;;;;;;;;5028067;28;20033;-40
2021/05/15 18:33:05;;;;;;;8.05;1.42;;;;;;;;;;5024057;28;20040;-40
2021/05/15 18:35:31;;;;;;;6.20;1.38;;;;;;;;;;5027299;28;20510;-40
2021/05/15 18:37:57;;;;;;;6.68;1.42;;;;;;;;;;5029196;28;20104;-42
2021/05/15 18:40:23;;;;;;;5.93;1.40;;;;;;;;;;5028593;28;20025;-40
2021/05/15 18:42:49;;;;;;;5.50;1.45;;;;;;;;;;5028002;28;20486;-41
2021/05/15 18:45:15;;;;;;;5.15;1.23;;;;;;;;;;5034329;28;20045;-40
2021/05/15 18:47:41;;;;;;;8.00;1.88;;;;;;;;;;5026060;28;20036;-40
2021/05/15 18:50:07;;;;;;;6.97;1.20;;;;;;;;;;5029520;28;20127;-40
2021/05/15 18:52:33;;;;;;;4.53;1.27;;;;;;;;;;5026174;28;20022;-40
2021/05/15 18:55:00;;;;;;;6.95;1.65;;;;;;;;;;5028175;28;20537;-39
2021/05/15 18:57:31;;;;;;;7.60;1.13;;;;;;;;;;5028262;28;20033;-39
2021/05/15 18:59:57;;;;;;;4.97;1.25;;;;;;;;;;5027348;28;20037;-39
2021/05/15 19:02:23;;;;;;;7.45;1.40;;;;;;;;;;5029423;28;20036;-40
2021/05/15 19:04:49;;;;;;;10.85;1.40;;;;;;;;;;5030189;28;20417;-39
2021/05/15 19:07:15;;;;;;;5.53;1.45;;;;;;;;;;5028116;28;20743;-39
2021/05/15 19:09:41;;;;;;;8.57;1.50;;;;;;;;;;5029660;28;20026;-39
2021/05/15 19:12:07;;;;;;;4.70;1.30;;;;;;;;;;5027161;28;20088;-40
2021/05/15 19:14:33;;;;;;;6.65;1.25;;;;;;;;;;5030111;28;20021;-40
2021/05/15 19:16:59;;;;;;;5.70;1.30;;;;;;;;;;5027827;28;20091;-40
2021/05/15 19:19:28;;;;;;;6.30;1.63;;;;;;;;;;5027707;28;20034;-40
2021/05/15 19:21:54;;;;;;;8.85;1.50;;;;;;;;;;5023045;28;20026;-40
2021/05/15 19:24:20;;;;;;;6.30;1.80;;;;;;;;;;5030569;28;20032;-40
2021/05/15 19:26:46;;;;;;;4.85;1.70;;;;;;;;;;5028821;28;20107;-41
2021/05/15 19:29:12;;;;;;;9.60;1.38;;;;;;;;;;5027064;28;20467;-40
2021/05/15 19:31:38;;;;;;;5.40;1.35;;;;;;;;;;5028958;28;20028;-39
2021/05/15 19:34:04;;;;;;;11.10;1.50;;;;;;;;;;5026090;28;20441;-40
2021/05/15 19:36:31;;;;;;;5.32;1.30;;;;;;;;;;5029638;28;20045;-40
2021/05/15 19:38:57;;;;;;;6.00;1.40;;;;;;;;;;5034613;28;20029;-39
2021/05/15 19:41:23;;;;;;;7.35;1.42;;;;;;;;;;5030617;28;20436;-40
2021/05/15 19:43:49;;;;;;;7.30;1.33;;;;;;;;;;5034392;28;20021;-39
2021/05/15 19:46:15;;;;;;;8.30;1.60;;;;;;;;;;5033678;28;20029;-40
2021/05/15 19:48:41;;;;;;;9.63;1.90;;;;;;;;;;5032292;28;20022;-40
2021/05/15 19:51:07;;;;;;;6.10;1.52;;;;;;;;;;5033315;28;20320;-40
2021/05/15 19:56:08;;;;;;;6.30;1.80;;;;;;;;;;5033170;28;20525;-41
2021/05/15 19:58:34;;;;;;;9.55;1.23;;;;;;;;;;5061456;28;20126;-40
2021/05/15 20:01:01;;;;;;;6.75;1.60;;;;;;;;;;5031480;28;20124;-39
2021/05/15 20:03:28;;;;;;;5.03;1.60;;;;;;;;;;5033683;28;20470;-40
2021/05/15 20:05:54;;;;;;;8.45;1.63;;;;;;;;;;5032141;28;20038;-41
2021/05/15 20:08:20;;;;;;;5.28;1.50;;;;;;;;;;5033364;28;20025;-40
2021/05/15 20:10:46;;;;;;;6.65;1.52;;;;;;;;;;5032543;28;20029;-40
2021/05/15 20:13:16;;;;;;;9.15;1.40;;;;;;;;;;5029322;28;20034;-40
2021/05/15 20:15:42;;;;;;;5.38;1.85;;;;;;;;;;5032846;28;20017;-39
2021/05/15 20:18:08;;;;;;;7.55;1.60;;;;;;;;;;5030720;28;20037;-41
2021/05/15 20:20:34;;;;;;;6.07;1.77;;;;;;;;;;5030678;28;20087;-39
2021/05/15 20:23:02;;;;;;;4.72;1.33;;;;;;;;;;5032413;28;20026;-41
2021/05/15 20:25:28;;;;;;;5.47;1.70;;;;;;;;;;5033450;28;20022;-40
2021/05/15 20:27:54;;;;;;;10.57;1.48;;;;;;;;;;5029310;28;20030;-40
2021/05/15 20:30:20;;;;;;;6.82;1.38;;;;;;;;;;5032633;28;20069;-40
2021/05/15 20:32:48;;;;;;;5.07;1.23;;;;;;;;;;5032597;28;20319;-40
2021/05/15 20:35:14;;;;;;;6.03;1.38;;;;;;;;;;5033339;28;20033;-44
2021/05/15 20:37:40;;;;;;;4.95;1.45;;;;;;;;;;5029549;28;20021;-44
2021/05/15 20:40:06;;;;;;;7.57;1.60;;;;;;;;;;5031830;28;20033;-43
2021/05/15 20:42:33;;;;;;;4.80;1.48;;;;;;;;;;5028660;28;20094;-42
2021/05/15 20:44:59;;;;;;;3.40;1.42;;;;;;;;;;5031693;28;20512;-43
2021/05/15 20:47:25;;;;;;;5.80;1.48;;;;;;;;;;5026500;28;20033;-43
2021/05/15 20:49:51;;;;;;;13.48;1.60;;;;;;;;;;5032294;28;20054;-43
2021/05/15 20:52:17;;;;;;;7.97;1.58;;;;;;;;;;5032698;28;20064;-43
2021/05/15 20:54:44;;;;;;;5.70;1.30;;;;;;;;;;5032559;28;20024;-44
2021/05/15 20:57:10;;;;;;;3.58;1.15;;;;;;;;;;5032080;28;20454;-42
2021/05/15 20:59:36;;;;;;;12.20;1.75;;;;;;;;;;5031561;28;20159;-41
2021/05/15 21:02:02;;;;;;;10.48;1.48;;;;;;;;;;5031538;28;20124;-40
2021/05/15 21:04:28;;;;;;;5.15;1.30;;;;;;;;;;5033240;28;20033;-41
2021/05/15 21:06:55;;;;;;;4.45;1.40;;;;;;;;;;5033291;28;20029;-40
2021/05/15 21:09:21;;;;;;;7.57;1.50;;;;;;;;;;5029560;28;20175;-38
2021/05/15 21:11:47;;;;;;;8.13;1.40;;;;;;;;;;5032409;28;20036;-40
2021/05/15 21:14:13;;;;;;;6.65;1.35;;;;;;;;;;5031143;28;20032;-38
2021/05/15 21:16:39;;;;;;;4.60;1.58;;;;;;;;;;5033264;28;20022;-40
2021/05/15 21:19:18;;;;;;;5.45;1.88;;;;;;;;;;5031746;28;20032;-41
2021/05/15 21:21:44;;;;;;;7.30;1.50;;;;;;;;;;5031468;28;20013;-39
2021/05/15 21:24:10;;;;;;;3.72;1.30;;;;;;;;;;5030111;28;20027;-40
2021/05/15 21:26:36;;;;;;;5.10;1.48;;;;;;;;;;5030931;28;20029;-41
2021/05/15 21:29:02;;;;;;;7.75;1.70;;;;;;;;;;5031422;28;20033;-39
2021/05/15 21:31:28;;;;;;;7.53;1.10;;;;;;;;;;5030841;28;20166;-40
2021/05/15 21:33:54;;;;;;;7.30;1.23;;;;;;;;;;5031803;28;20032;-40
2021/05/15 21:36:20;;;;;;;4.20;1.27;;;;;;;;;;5030458;28;20045;-40
2021/05/15 21:38:46;;;;;;;4.63;1.23;;;;;;;;;;5032180;28;20021;-39
2021/05/15 21:41:12;;;;;;;4.13;1.20;;;;;;;;;;5030561;28;20052;-39
2021/05/15 21:43:38;;;;;;;4.18;1.20;;;;;;;;;;5032136;28;20025;-39
2021/05/15 21:46:04;;;;;;;6.38;1.30;;;;;;;;;;5031033;28;20080;-41
2021/05/15 21:48:31;;;;;;;5.50;1.30;;;;;;;;;;5047151;28;20033;-42
2021/05/15 21:50:57;;;;;;;4.97;1.23;;;;;;;;;;5030638;28;20436;-40
2021/05/15 21:53:23;;;;;;;5.25;1.55;;;;;;;;;;5028792;28;20461;-40
2021/05/15 21:55:49;;;;;;;4.60;1.50;;;;;;;;;;5028658;28;20021;-42
2021/05/15 21:58:15;;;;;;;5.40;1.10;;;;;;;;;;5030890;28;20028;-40
2021/05/15 22:00:50;;;;;;;6.30;1.20;;;;;;;;;;5031313;28;20457;-40
2021/05/15 22:03:20;;;;;;;5.90;1.23;;;;;;;;;;5029725;28;20029;-40
2021/05/15 22:05:46;;;;;;;6.30;1.70;;;;;;;;;;5065060;28;20051;-40
2021/05/15 22:08:13;;;;;;;8.55;1.50;;;;;;;;;;5029584;28;20473;-39
2021/05/15 22:10:39;;;;;;;3.33;1.20;;;;;;;;;;5033096;28;20408;-40
2021/05/15 22:13:07;;;;;;;2.88;1.10;;;;;;;;;;5033321;28;20034;-40
2021/05/15 22:15:33;;;;;;;6.93;1.33;;;;;;;;;;5028418;28;20033;-40
2021/05/15 22:17:59;;;;;;;5.63;0.90;;;;;;;;;;5025632;28;20033;-39
2021/05/15 22:20:27;;;;;;;4.63;1.33;;;;;;;;;;5027678;28;20022;-42
2021/05/15 22:22:53;;;;;;;3.80;0.93;;;;;;;;;;5031779;28;20398;-40
2021/05/15 22:25:19;;;;;;;2.45;1.13;;;;;;;;;;5023414;28;20124;-40
2021/05/15 22:27:45;;;;;;;3.88;1.10;;;;;;;;;;5032223;28;20022;-41
2021/05/15 22:30:14;;;;;;;5.32;1.10;;;;;;;;;;5027756;28;20096;-41
2021/05/15 22:32:40;;;;;;;3.83;1.13;;;;;;;;;;5030111;28;20052;-40
2021/05/15 22:35:06;;;;;;;3.83;1.10;;;;;;;;;;5028481;28;20025;-40
2021/05/15 22:37:32;;;;;;;5.63;1.15;;;;;;;;;;5029437;28;20111;-40
2021/05/15 22:39:58;;;;;;;3.67;1.15;;;;;;;;;;5030604;28;20079;-40
2021/05/15 22:42:24;;;;;;;6.15;1.08;;;;;;;;;;5031937;28;20343;-40
2021/05/15 22:44:50;;;;;;;2.53;0.85;;;;;;;;;;5030416;28;20112;-40
2021/05/15 22:47:16;;;;;;;2.55;0.80;;;;;;;;;;5032403;28;20032;-38
2021/05/15 22:49:42;;;;;;;4.00;1.10;;;;;;;;;;5030765;28;20045;-40
2021/05/15 22:52:09;;;;;;;5.00;1.20;;;;;;;;;;5033093;28;20026;-39
2021/05/15 22:54:35;;;;;;;5.05;1.58;;;;;;;;;;5028785;28;20342;-40
2021/05/15 22:57:03;;;;;;;6.03;1.25;;;;;;;;;;5028484;28;20075;-39
2021/05/15 22:59:31;;;;;;;3.90;1.23;;;;;;;;;;5030934;28;20520;-40
2021/05/15 23:01:58;;;;;;;4.13;1.10;;;;;;;;;;5033979;28;20037;-40
2021/05/15 23:04:27;;;;;;;4.57;1.10;;;;;;;;;;5027500;28;20033;-39
2021/05/15 23:06:53;;;;;;;4.53;1.25;;;;;;;;;;5032897;28;20409;-39
2021/05/15 23:09:19;;;;;;;2.67;1.10;;;;;;;;;;5027820;28;20041;-39
2021/05/15 23:11:45;;;;;;;3.58;1.10;;;;;;;;;;5035701;28;20022;-40
2021/05/15 23:14:11;;;;;;;3.60;1.00;;;;;;;;;;5037604;28;20473;-39
2021/05/15 23:16:38;;;;;;;3.38;1.23;;;;;;;;;;5038024;28;20030;-39
2021/05/15 23:19:04;;;;;;;2.80;1.17;;;;;;;;;;5036635;28;20374;-39
2021/05/15 23:21:30;;;;;;;4.47;1.00;;;;;;;;;;5037254;28;20017;-40
2021/05/15 23:23:56;;;;;;;4.40;1.08;;;;;;;;;;5037298;28;20115;-40
2021/05/15 23:26:22;;;;;;;3.83;1.10;;;;;;;;;;5037286;28;20430;-40
2021/05/15 23:28:48;;;;;;;4.53;1.10;;;;;;;;;;5031826;28;20014;-40
2021/05/15 23:31:14;;;;;;;6.43;1.25;;;;;;;;;;5031392;28;20456;-40
2021/05/15 23:33:40;;;;;;;2.67;1.10;;;;;;;;;;5036304;28;20029;-39
2021/05/15 23:36:06;;;;;;;6.72;1.55;;;;;;;;;;5036860;28;20033;-40
2021/05/15 23:38:32;;;;;;;2.47;1.00;;;;;;;;;;5036690;28;20022;-40
2021/05/15 23:40:58;;;;;;;4.63;1.48;;;;;;;;;;5029504;28;20465;-39
2021/05/15 23:43:24;;;;;;;5.07;1.10;;;;;;;;;;5036593;28;20033;-38
2021/05/15 23:45:50;;;;;;;4.85;1.27;;;;;;;;;;5036547;28;20108;-40
2021/05/15 23:48:16;;;;;;;3.88;1.15;;;;;;;;;;5036447;28;20454;-40
2021/05/15 23:50:42;;;;;;;2.55;1.40;;;;;;;;;;5035656;28;20111;-39
2021/05/15 23:53:08;;;;;;;5.05;1.33;;;;;;;;;;5037779;28;20091;-41
2021/05/15 23:55:34;;;;;;;2.80;1.10;;;;;;;;;;5029466;28;20471;-39
2021/05/15 23:58:02;;;;;;;6.00;1.10;;;;;;;;;;5031837;28;20057;-38
